COM weather

Comitan Airport
Comitán, Chiapas, Mexico

Public forecast

Using degrees Celsius for public forecast. Weather courtesy of forecast.io.

METAR (pilot weather report)

Report is more than 2 hours old.

Closest report is Angel Albino Corzo International Airport, 57.0 nm (105.6 km) WNW. Retrieved 2019/06/19 04:50 UTC (5 hours ago):

MMTG 190450Z 00000KT 8SM SCT090 SCT300 26/24 A2994 RMK 8/038 HZY

TAF (pilot weather forecast)

Forecast is more than 12 hours old.

Closest forecast is Angel Albino Corzo International Airport, 57.0 nm (105.6 km) WNW. Retrieved 2019/06/18 18:21 UTC (16 hours ago):

TAF MMTG 181717Z 1818/1918 12005KT P6SM SCT030 BKN120 TEMPO 1822/1902 4SM TSRA BKN015CB FM190200 35005KT 5SM -RA BKN015 BKN080 VC CB FM190600 00000KT 6SM HZ SCT030 BKN100 BKN300